createdAt,value
2023-04-26T00:01:29.408Z,5.10
2023-04-26T00:03:56.416Z,5.10
2023-04-26T00:06:23.260Z,5.10
2023-04-26T00:08:50.016Z,5.00
2023-04-26T00:11:16.855Z,4.90
2023-04-26T00:13:43.464Z,4.90
2023-04-26T00:16:10.035Z,4.90
2023-04-26T00:18:37.283Z,4.90
2023-04-26T00:21:03.854Z,4.80
2023-04-26T00:23:37.291Z,4.70
2023-04-26T00:26:04.420Z,4.60
2023-04-26T00:28:31.470Z,4.60
2023-04-26T00:30:58.196Z,4.50
2023-04-26T00:33:24.870Z,4.50
2023-04-26T00:35:51.794Z,4.40
2023-04-26T00:38:18.330Z,4.40
2023-04-26T00:40:44.908Z,4.30
2023-04-26T00:43:11.611Z,4.20
2023-04-26T00:45:38.379Z,4.20
2023-04-26T00:48:05.111Z,4.30
2023-04-26T00:50:32.680Z,4.30
2023-04-26T00:52:59.999Z,4.30
2023-04-26T00:55:27.394Z,4.20
2023-04-26T00:57:53.998Z,4.20
2023-04-26T01:00:21.427Z,4.20
2023-04-26T01:02:48.329Z,4.10
2023-04-26T01:05:15.080Z,4.00
2023-04-26T01:07:41.750Z,3.90
2023-04-26T01:10:10.103Z,3.90
2023-04-26T01:12:36.908Z,3.80
2023-04-26T01:15:03.820Z,3.80
2023-04-26T01:17:31.020Z,3.70
2023-04-26T01:19:57.799Z,3.60
2023-04-26T01:22:24.394Z,3.50
2023-04-26T01:24:51.563Z,3.50
2023-04-26T01:27:18.220Z,3.40
2023-04-26T01:29:46.199Z,3.40
2023-04-26T01:32:12.870Z,3.30
2023-04-26T01:34:39.559Z,3.40
2023-04-26T01:37:07.625Z,3.40
2023-04-26T01:39:34.832Z,3.30
2023-04-26T01:42:02.864Z,3.40
2023-04-26T01:44:29.424Z,3.40
2023-04-26T01:46:56.048Z,3.40
2023-04-26T01:49:23.175Z,3.40
2023-04-26T01:51:50.038Z,3.40
2023-04-26T01:54:16.724Z,3.40
2023-04-26T01:56:43.315Z,3.30
2023-04-26T01:59:09.970Z,3.30
2023-04-26T02:01:37.235Z,3.30
2023-04-26T02:04:04.540Z,3.40
2023-04-26T02:06:32.294Z,3.30
2023-04-26T02:08:58.901Z,3.20
2023-04-26T02:11:26.888Z,3.00
2023-04-26T02:13:53.981Z,2.90
2023-04-26T02:16:21.161Z,2.80
2023-04-26T02:18:49.851Z,2.80
2023-04-26T02:21:17.421Z,2.90
2023-04-26T02:23:44.236Z,2.90
2023-04-26T02:26:12.042Z,2.80
2023-04-26T02:28:38.893Z,2.80
2023-04-26T02:31:05.908Z,2.80
2023-04-26T02:33:32.881Z,2.70
2023-04-26T02:35:59.412Z,2.60
2023-04-26T02:38:29.050Z,2.60
2023-04-26T02:41:02.400Z,2.60
2023-04-26T02:43:29.257Z,2.60
2023-04-26T02:45:58.540Z,2.60
2023-04-26T02:48:25.061Z,2.60
2023-04-26T02:50:52.228Z,2.50
2023-04-26T02:53:18.905Z,2.50
2023-04-26T02:55:46.019Z,2.50
2023-04-26T02:58:13.085Z,2.40
2023-04-26T03:00:39.823Z,2.60
2023-04-26T03:03:06.801Z,2.40
2023-04-26T03:05:33.490Z,2.40
2023-04-26T03:08:00.319Z,2.40
2023-04-26T03:10:27.025Z,2.50
2023-04-26T03:12:53.584Z,2.60
2023-04-26T03:15:20.220Z,2.50
2023-04-26T03:17:46.841Z,2.50
2023-04-26T03:20:16.754Z,2.40
2023-04-26T03:22:43.428Z,2.40
2023-04-26T03:25:10.254Z,2.30
2023-04-26T03:27:36.907Z,2.30
2023-04-26T03:30:04.354Z,2.50
2023-04-26T03:32:31.265Z,2.50
2023-04-26T03:34:58.580Z,2.60
2023-04-26T03:37:25.257Z,2.60
2023-04-26T03:39:53.398Z,2.40
2023-04-26T03:42:23.156Z,2.30
2023-04-26T03:44:49.795Z,2.30
2023-04-26T03:47:16.429Z,2.20
2023-04-26T03:49:43.064Z,2.10
2023-04-26T03:52:12.450Z,2.10
2023-04-26T03:54:38.998Z,2.00
2023-04-26T03:57:05.651Z,1.90
2023-04-26T03:59:32.798Z,1.70
2023-04-26T04:01:59.376Z,1.70
2023-04-26T04:04:26.167Z,1.80
2023-04-26T04:06:52.932Z,1.90
2023-04-26T04:09:19.546Z,2.00
2023-04-26T04:11:47.584Z,2.00
2023-04-26T04:14:14.235Z,2.00
2023-04-26T04:16:40.821Z,2.00
2023-04-26T04:19:07.563Z,2.10
2023-04-26T04:21:34.371Z,2.10
2023-04-26T04:24:01.192Z,2.20
2023-04-26T04:26:31.111Z,2.10
2023-04-26T04:29:00.517Z,2.10
2023-04-26T04:31:27.184Z,2.10
2023-04-26T04:33:53.800Z,2.30
2023-04-26T04:36:20.437Z,2.40
2023-04-26T04:38:47.247Z,2.40
2023-04-26T04:41:14.475Z,2.50
2023-04-26T04:43:43.533Z,2.50
2023-04-26T04:46:12.573Z,2.50
2023-04-26T04:48:40.176Z,2.60
2023-04-26T04:51:06.733Z,2.60
2023-04-26T04:53:33.840Z,2.70
2023-04-26T04:56:01.056Z,2.80
2023-04-26T04:58:27.890Z,2.80
2023-04-26T05:00:56.637Z,2.80
2023-04-26T05:03:23.428Z,2.90
2023-04-26T05:05:51.548Z,2.90
2023-04-26T05:08:19.013Z,3.00
2023-04-26T05:13:26.632Z,3.30
2023-04-26T05:15:54.208Z,3.40
2023-04-26T05:18:21.054Z,3.50
2023-04-26T05:20:47.806Z,3.60
2023-04-26T05:23:14.480Z,3.70
2023-04-26T05:25:41.135Z,3.70
2023-04-26T05:28:12.545Z,3.80
2023-04-26T05:30:39.337Z,3.90
2023-04-26T05:33:06.932Z,3.90
2023-04-26T05:35:33.708Z,3.90
2023-04-26T05:38:00.386Z,4.00
2023-04-26T05:40:26.998Z,4.10
2023-04-26T05:42:55.816Z,4.10
2023-04-26T05:45:22.930Z,4.20
2023-04-26T05:47:49.686Z,4.20
2023-04-26T05:50:16.284Z,4.30
2023-04-26T05:52:45.782Z,4.40
2023-04-26T05:55:13.659Z,4.30
2023-04-26T05:57:40.477Z,4.40
2023-04-26T06:00:09.811Z,4.40
2023-04-26T06:02:36.594Z,4.50
2023-04-26T06:05:05.327Z,4.50
2023-04-26T06:07:32.570Z,4.50
2023-04-26T06:10:00.814Z,4.60
2023-04-26T06:12:27.419Z,4.60
2023-04-26T06:14:54.056Z,4.60
2023-04-26T06:17:21.336Z,4.70
2023-04-26T06:19:48.230Z,4.80
2023-04-26T06:22:14.872Z,4.90
2023-04-26T06:24:43.226Z,5.00
2023-04-26T06:29:45.610Z,5.10
2023-04-26T06:32:12.477Z,5.20
2023-04-26T06:34:43.966Z,5.20
2023-04-26T06:37:11.207Z,5.20
2023-04-26T06:39:40.396Z,5.40
2023-04-26T06:42:09.577Z,5.50
2023-04-26T06:44:38.895Z,5.60
2023-04-26T06:47:11.930Z,5.60
2023-04-26T06:49:38.854Z,5.70
2023-04-26T06:52:09.352Z,5.70
2023-04-26T06:57:06.814Z,5.80
2023-04-26T06:59:33.517Z,5.90
2023-04-26T07:02:00.826Z,6.10
2023-04-26T07:04:27.725Z,6.30
2023-04-26T07:06:58.862Z,6.50
2023-04-26T07:09:25.705Z,6.70
2023-04-26T07:11:52.480Z,6.90
2023-04-26T07:14:19.242Z,7.20
2023-04-26T07:16:46.383Z,7.30
2023-04-26T07:19:13.306Z,7.60
2023-04-26T07:21:40.060Z,7.80
2023-04-26T07:24:06.756Z,7.90
2023-04-26T07:26:34.869Z,7.90
2023-04-26T07:29:02.415Z,8.10
2023-04-26T07:31:29.974Z,8.10
2023-04-26T07:33:57.087Z,8.20
2023-04-26T07:36:26.071Z,8.20
2023-04-26T07:38:52.920Z,8.20
2023-04-26T07:41:20.282Z,8.40
2023-04-26T07:43:47.017Z,8.40
2023-04-26T07:46:15.197Z,8.10
2023-04-26T07:48:42.136Z,8.00
2023-04-26T07:51:10.468Z,8.10
2023-04-26T07:53:37.492Z,8.30
2023-04-26T07:56:05.747Z,8.40
2023-04-26T07:58:33.624Z,8.50
2023-04-26T08:01:01.055Z,8.50
2023-04-26T08:03:28.356Z,8.60
2023-04-26T08:05:55.991Z,8.50
2023-04-26T08:08:23.226Z,8.30
2023-04-26T08:10:50.061Z,8.40
2023-04-26T08:13:18.029Z,8.60
2023-04-26T08:15:45.304Z,8.90
2023-04-26T08:18:12.204Z,9.00
2023-04-26T08:20:39.339Z,9.10
2023-04-26T08:23:06.216Z,9.30
2023-04-26T08:25:34.861Z,9.10
2023-04-26T08:28:02.027Z,9.50
2023-04-26T08:30:28.810Z,9.50
2023-04-26T08:32:56.295Z,9.20
2023-04-26T08:35:23.290Z,9.00
2023-04-26T08:37:50.317Z,8.80
2023-04-26T08:40:20.764Z,9.10
2023-04-26T08:42:48.209Z,9.50
2023-04-26T08:45:16.316Z,9.40
2023-04-26T08:47:49.993Z,9.50
2023-04-26T08:50:19.471Z,9.80
2023-04-26T08:52:51.112Z,10.30
2023-04-26T08:55:18.521Z,10.80
2023-04-26T08:57:48.833Z,11.00
2023-04-26T09:00:16.484Z,10.80
2023-04-26T09:02:46.555Z,11.20
2023-04-26T09:05:15.714Z,11.20
2023-04-26T09:07:46.027Z,11.20
2023-04-26T09:10:15.631Z,11.50
2023-04-26T09:12:42.374Z,11.50
2023-04-26T09:15:09.380Z,11.40
2023-04-26T09:17:37.528Z,11.00
2023-04-26T09:20:21.648Z,10.50
2023-04-26T09:22:52.289Z,10.60
2023-04-26T09:25:26.427Z,10.60
2023-04-26T09:27:53.127Z,10.60
2023-04-26T09:30:20.978Z,10.50
2023-04-26T09:32:51.863Z,10.20
2023-04-26T09:35:29.720Z,10.60
2023-04-26T09:38:04.013Z,10.60
2023-04-26T09:40:40.611Z,10.60
2023-04-26T09:43:08.673Z,10.80
2023-04-26T09:45:57.403Z,10.60
2023-04-26T09:48:30.850Z,10.40
2023-04-26T09:50:59.038Z,10.30
2023-04-26T09:53:31.994Z,10.30
2023-04-26T09:56:07.559Z,10.30
2023-04-26T09:58:34.499Z,10.70
2023-04-26T10:01:03.768Z,10.60
2023-04-26T10:03:31.880Z,11.00
2023-04-26T10:05:58.807Z,11.20
2023-04-26T10:08:26.374Z,10.80
2023-04-26T10:10:53.295Z,10.80
2023-04-26T10:13:23.011Z,11.30
2023-04-26T10:15:52.610Z,10.70
2023-04-26T10:18:19.561Z,10.60
2023-04-26T10:20:48.542Z,10.60
2023-04-26T10:23:30.131Z,10.70
2023-04-26T10:25:58.299Z,10.70
2023-04-26T10:28:40.235Z,11.20
2023-04-26T10:31:09.732Z,12.20
2023-04-26T10:33:36.548Z,13.10
2023-04-26T10:36:04.919Z,14.10
2023-04-26T10:38:38.345Z,15.70
2023-04-26T10:41:43.682Z,17.40
2023-04-26T10:44:29.051Z,18.00
2023-04-26T10:46:56.108Z,17.50
2023-04-26T10:49:28.578Z,16.30
2023-04-26T10:52:15.920Z,14.00
2023-04-26T10:54:53.327Z,12.70
2023-04-26T10:57:20.613Z,11.70
2023-04-26T11:00:06.052Z,13.50
2023-04-26T11:02:46.618Z,15.70
2023-04-26T11:05:32.187Z,17.00
2023-04-26T11:08:10.079Z,15.50
2023-04-26T11:10:37.332Z,13.40
2023-04-26T11:13:04.469Z,13.30
2023-04-26T11:15:35.096Z,14.40
2023-04-26T11:18:05.207Z,14.00
2023-04-26T11:20:32.605Z,13.80
2023-04-26T11:22:59.489Z,14.00
2023-04-26T11:25:28.080Z,16.10
2023-04-26T11:28:02.286Z,16.00
2023-04-26T11:30:32.524Z,15.10
2023-04-26T11:33:00.477Z,15.00
2023-04-26T11:35:32.258Z,13.30
2023-04-26T11:38:02.653Z,13.10
2023-04-26T11:40:33.017Z,13.80
2023-04-26T11:43:01.366Z,14.30
2023-04-26T11:45:28.249Z,14.70
2023-04-26T11:47:57.817Z,14.60
2023-04-26T11:50:28.895Z,14.10
2023-04-26T11:52:59.010Z,14.40
2023-04-26T11:55:30.633Z,14.20
2023-04-26T11:57:57.897Z,14.00
2023-04-26T12:00:25.352Z,15.20
2023-04-26T12:02:52.956Z,14.70
2023-04-26T12:05:24.510Z,14.50
2023-04-26T12:10:46.674Z,14.40
2023-04-26T12:13:13.748Z,14.60
2023-04-26T12:15:40.393Z,15.80
2023-04-26T12:18:11.233Z,17.30
2023-04-26T12:20:41.323Z,18.40
2023-04-26T12:23:09.234Z,18.60
2023-04-26T12:25:36.855Z,17.70
2023-04-26T12:28:04.357Z,15.70
2023-04-26T12:30:31.317Z,16.80
2023-04-26T12:33:05.787Z,16.40
2023-04-26T12:35:36.437Z,18.60
2023-04-26T12:38:03.261Z,17.00
2023-04-26T12:40:29.978Z,17.70
2023-04-26T12:43:02.787Z,17.90
2023-04-26T12:45:29.546Z,18.10
2023-04-26T12:47:56.465Z,16.90
2023-04-26T12:50:23.303Z,17.10
2023-04-26T12:52:50.352Z,17.30
2023-04-26T12:55:17.135Z,17.00
2023-04-26T12:57:44.492Z,17.20
2023-04-26T13:00:12.348Z,18.00
2023-04-26T13:02:39.818Z,15.70
2023-04-26T13:05:06.807Z,15.00
2023-04-26T13:07:34.368Z,14.80
2023-04-26T13:10:01.341Z,15.70
2023-04-26T13:12:28.249Z,15.50
2023-04-26T13:14:55.177Z,14.70
2023-04-26T13:17:24.128Z,15.10
2023-04-26T13:19:51.349Z,14.60
2023-04-26T13:22:18.763Z,14.80
2023-04-26T13:24:49.906Z,15.70
2023-04-26T13:27:17.097Z,16.30
2023-04-26T13:29:43.946Z,17.00
2023-04-26T13:32:10.770Z,18.10
2023-04-26T13:34:37.454Z,17.50
2023-04-26T13:37:04.359Z,16.50
2023-04-26T13:39:31.242Z,17.30
2023-04-26T13:41:59.183Z,17.50
2023-04-26T13:44:26.158Z,17.60
2023-04-26T13:46:54.392Z,18.70
2023-04-26T13:49:22.943Z,16.90
2023-04-26T13:51:49.599Z,18.10
2023-04-26T13:54:16.905Z,19.10
2023-04-26T13:56:43.699Z,19.30
2023-04-26T13:59:10.494Z,19.20
2023-04-26T14:01:37.323Z,18.00
2023-04-26T14:04:10.654Z,18.00
2023-04-26T14:06:37.517Z,17.90
2023-04-26T14:09:07.106Z,17.70
2023-04-26T14:11:33.881Z,16.80
2023-04-26T14:14:00.816Z,18.30
2023-04-26T14:16:27.585Z,19.50
2023-04-26T14:18:54.351Z,18.80
2023-04-26T14:21:21.154Z,18.50
2023-04-26T14:23:47.792Z,18.70
2023-04-26T14:26:14.718Z,19.50
2023-04-26T14:28:43.703Z,17.60
2023-04-26T14:31:10.796Z,17.90
2023-04-26T14:33:37.516Z,19.40
2023-04-26T14:36:04.326Z,21.20
2023-04-26T14:38:31.266Z,21.80
2023-04-26T14:40:57.958Z,20.50
2023-04-26T14:43:24.653Z,17.80
2023-04-26T14:45:53.147Z,17.70
2023-04-26T14:48:20.290Z,20.00
2023-04-26T14:50:47.282Z,22.00
2023-04-26T14:53:13.959Z,22.90
2023-04-26T14:55:40.694Z,24.90
2023-04-26T14:58:07.932Z,23.80
2023-04-26T15:00:34.557Z,23.10
2023-04-26T15:03:01.482Z,20.70
2023-04-26T15:05:28.262Z,20.70
2023-04-26T15:07:55.003Z,17.70
2023-04-26T15:10:21.839Z,15.90
2023-04-26T15:12:48.612Z,15.80
2023-04-26T15:15:15.461Z,15.70
2023-04-26T15:17:42.208Z,16.00
2023-04-26T15:20:12.731Z,15.70
2023-04-26T15:22:39.471Z,16.00
2023-04-26T15:25:06.378Z,15.20
2023-04-26T15:27:36.506Z,15.40
2023-04-26T15:30:04.927Z,15.60
2023-04-26T15:32:34.642Z,16.40
2023-04-26T15:35:01.635Z,16.70
2023-04-26T15:37:28.775Z,16.50
2023-04-26T15:39:55.518Z,16.50
2023-04-26T15:42:22.210Z,16.20
2023-04-26T15:44:49.923Z,17.10
2023-04-26T15:47:16.663Z,20.20
2023-04-26T15:49:43.302Z,21.70
2023-04-26T15:52:10.720Z,20.40
2023-04-26T15:54:37.322Z,19.80
2023-04-26T15:57:10.370Z,19.10
2023-04-26T15:59:37.012Z,18.50
2023-04-26T16:02:05.512Z,17.80
2023-04-26T16:04:32.353Z,18.30
2023-04-26T16:06:59.076Z,18.70
2023-04-26T16:09:26.167Z,18.30
2023-04-26T16:11:52.974Z,18.40
2023-04-26T16:14:19.628Z,17.70
2023-04-26T16:16:46.674Z,17.30
2023-04-26T16:19:17.378Z,17.60
2023-04-26T16:21:44.219Z,17.90
2023-04-26T16:24:11.752Z,19.60
2023-04-26T16:26:38.649Z,20.50
2023-04-26T16:29:05.376Z,21.00
2023-04-26T16:31:32.521Z,20.90
2023-04-26T16:33:59.314Z,20.30
2023-04-26T16:36:27.254Z,19.10
2023-04-26T16:38:54.333Z,19.50
2023-04-26T16:41:21.210Z,19.60
2023-04-26T16:43:47.969Z,17.30
2023-04-26T16:46:14.761Z,17.50
2023-04-26T16:48:41.476Z,19.10
2023-04-26T16:51:08.230Z,19.30
2023-04-26T16:53:35.134Z,19.40
2023-04-26T16:56:01.818Z,19.50
2023-04-26T16:58:28.688Z,18.90
2023-04-26T17:00:55.648Z,18.70
2023-04-26T17:03:24.188Z,17.40
2023-04-26T17:05:54.344Z,18.00
2023-04-26T17:08:21.912Z,17.60
2023-04-26T17:10:48.600Z,16.60
2023-04-26T17:13:15.366Z,16.70
2023-04-26T17:15:43.428Z,16.70
2023-04-26T17:18:10.833Z,17.30
2023-04-26T17:20:37.630Z,17.70
2023-04-26T17:23:04.625Z,17.40
2023-04-26T17:25:31.423Z,17.20
2023-04-26T17:27:58.421Z,17.40
2023-04-26T17:30:25.193Z,17.60
2023-04-26T17:32:51.807Z,16.60
2023-04-26T17:35:18.510Z,15.30
2023-04-26T17:37:50.102Z,16.30
2023-04-26T17:40:18.067Z,15.90
2023-04-26T17:42:45.869Z,15.90
2023-04-26T17:45:14.146Z,15.50
2023-04-26T17:47:41.723Z,15.00
2023-04-26T17:50:09.302Z,14.40
2023-04-26T17:52:36.189Z,13.60
2023-04-26T17:55:03.875Z,13.50
2023-04-26T17:59:59.337Z,12.80
2023-04-26T18:02:26.290Z,12.70
2023-04-26T18:04:53.733Z,12.70
2023-04-26T18:07:20.856Z,12.70
2023-04-26T18:09:47.656Z,12.40
2023-04-26T18:12:14.350Z,12.40
2023-04-26T18:14:44.681Z,12.50
2023-04-26T18:17:15.214Z,12.50
2023-04-26T18:19:42.216Z,12.20
2023-04-26T18:22:08.994Z,11.90
2023-04-26T18:24:35.680Z,11.40
2023-04-26T18:27:03.865Z,11.40
2023-04-26T18:29:30.552Z,11.30
2023-04-26T18:31:57.254Z,11.20
2023-04-26T18:34:26.115Z,11.20
2023-04-26T18:36:52.757Z,11.00
2023-04-26T18:39:19.382Z,11.10
2023-04-26T18:41:46.030Z,11.00
2023-04-26T18:44:13.340Z,10.90
2023-04-26T18:46:40.934Z,10.90
2023-04-26T18:49:07.591Z,10.90
2023-04-26T18:51:34.453Z,10.80
2023-04-26T18:54:01.353Z,10.70
2023-04-26T18:56:28.724Z,10.70
2023-04-26T18:58:55.378Z,10.70
2023-04-26T19:01:22.286Z,10.60
2023-04-26T19:03:49.202Z,10.40
2023-04-26T19:06:16.505Z,10.50
2023-04-26T19:08:43.479Z,10.40
2023-04-26T19:11:12.129Z,10.40
2023-04-26T19:13:40.093Z,10.40
2023-04-26T19:16:07.392Z,10.40
2023-04-26T19:18:34.233Z,10.40
2023-04-26T19:21:07.953Z,10.40
2023-04-26T19:23:34.918Z,10.40
2023-04-26T19:26:05.668Z,10.40
2023-04-26T19:28:32.428Z,10.30
2023-04-26T19:30:59.140Z,10.40
2023-04-26T19:33:27.025Z,10.40
2023-04-26T19:35:53.724Z,10.40
2023-04-26T19:38:23.244Z,10.40
2023-04-26T19:40:50.256Z,10.30
2023-04-26T19:43:17.353Z,10.30
2023-04-26T19:45:44.631Z,10.30
2023-04-26T19:48:11.432Z,10.40
2023-04-26T19:50:41.549Z,10.30
2023-04-26T19:53:09.771Z,10.30
2023-04-26T19:55:37.559Z,10.30
2023-04-26T19:58:04.950Z,10.20
2023-04-26T20:00:31.905Z,10.10
2023-04-26T20:02:59.100Z,10.00
2023-04-26T20:05:26.503Z,10.10
2023-04-26T20:07:53.429Z,10.00
2023-04-26T20:10:22.001Z,10.00
2023-04-26T20:12:49.002Z,10.10
2023-04-26T20:15:16.128Z,10.00
2023-04-26T20:17:43.265Z,10.00
2023-04-26T20:20:10.849Z,9.90
2023-04-26T20:22:37.720Z,9.90
2023-04-26T20:25:07.803Z,9.90
2023-04-26T20:27:34.837Z,10.00
2023-04-26T20:30:04.947Z,10.00
2023-04-26T20:32:31.656Z,10.00
2023-04-26T20:34:58.541Z,9.90
2023-04-26T20:37:25.669Z,9.90
2023-04-26T20:39:52.402Z,9.70
2023-04-26T20:42:18.905Z,9.70
2023-04-26T20:44:45.688Z,9.70
2023-04-26T20:47:13.103Z,9.60
2023-04-26T20:49:39.660Z,9.70
2023-04-26T20:52:06.360Z,9.70
2023-04-26T20:54:33.170Z,9.60
2023-04-26T20:57:00.047Z,9.60
2023-04-26T20:59:26.937Z,9.50
2023-04-26T21:01:53.820Z,9.50
2023-04-26T21:04:23.269Z,9.50
2023-04-26T21:06:50.110Z,9.30
2023-04-26T21:09:17.057Z,9.40
2023-04-26T21:11:43.727Z,9.30
2023-04-26T21:14:10.356Z,9.30
2023-04-26T21:16:36.979Z,9.20
2023-04-26T21:19:03.734Z,9.30
2023-04-26T21:21:30.714Z,9.30
2023-04-26T21:23:57.400Z,9.30
2023-04-26T21:26:24.031Z,9.30
2023-04-26T21:28:50.910Z,9.20
2023-04-26T21:31:17.804Z,9.20
2023-04-26T21:33:44.536Z,9.20
2023-04-26T21:36:11.331Z,9.20
2023-04-26T21:38:37.971Z,9.10
2023-04-26T21:41:04.594Z,9.20
2023-04-26T21:43:31.182Z,9.20
2023-04-26T21:46:00.907Z,9.20
2023-04-26T21:48:27.869Z,9.10
2023-04-26T21:50:54.505Z,9.20
2023-04-26T21:53:21.244Z,9.10
2023-04-26T21:55:52.514Z,9.10
2023-04-26T21:58:20.358Z,9.10
2023-04-26T22:00:47.083Z,9.10
2023-04-26T22:03:14.225Z,9.20
2023-04-26T22:05:41.065Z,9.10
2023-04-26T22:08:07.822Z,9.10
2023-04-26T22:10:34.666Z,9.10
2023-04-26T22:13:01.244Z,9.00
2023-04-26T22:15:28.148Z,9.00
2023-04-26T22:17:54.762Z,9.00
2023-04-26T22:20:21.715Z,8.90
2023-04-26T22:22:48.565Z,8.90
2023-04-26T22:25:15.202Z,8.90
2023-04-26T22:27:41.747Z,8.80
2023-04-26T22:30:23.914Z,8.80
2023-04-26T22:32:57.168Z,8.80
2023-04-26T22:35:24.476Z,8.60
2023-04-26T22:37:51.151Z,8.60
2023-04-26T22:40:17.950Z,8.60
2023-04-26T22:42:44.799Z,8.60
2023-04-26T22:45:12.444Z,8.50
2023-04-26T22:47:39.651Z,8.40
2023-04-26T22:50:07.430Z,8.40
2023-04-26T22:52:37.007Z,8.30
2023-04-26T22:55:03.842Z,8.30
2023-04-26T22:57:31.270Z,8.30
2023-04-26T22:59:57.967Z,8.20
2023-04-26T23:02:24.624Z,8.20
2023-04-26T23:04:51.477Z,8.10
2023-04-26T23:07:18.081Z,8.10
2023-04-26T23:09:44.855Z,8.00
2023-04-26T23:12:11.595Z,8.00
2023-04-26T23:14:40.589Z,8.00
2023-04-26T23:17:07.249Z,8.00
2023-04-26T23:19:35.051Z,8.00
2023-04-26T23:22:01.590Z,8.00
2023-04-26T23:24:28.173Z,8.00
2023-04-26T23:26:54.785Z,8.00
2023-04-26T23:29:21.666Z,8.00
2023-04-26T23:31:48.425Z,7.90
2023-04-26T23:34:15.142Z,7.90
2023-04-26T23:36:41.744Z,7.80
2023-04-26T23:39:08.999Z,7.90
2023-04-26T23:41:35.831Z,7.90
2023-04-26T23:44:02.567Z,7.80
2023-04-26T23:46:29.467Z,7.80
2023-04-26T23:48:56.184Z,7.80
2023-04-26T23:51:22.816Z,7.80
2023-04-26T23:53:49.545Z,7.80
2023-04-26T23:56:16.215Z,7.80
2023-04-26T23:58:42.923Z,7.70
